Time;durP1;ratioP1;P1;durP2;ratioP2;P2;SDS_P1;SDS_P2;PMS_P1;PMS_P2;Temp;Humidity;BMP_temperature;BMP_pressure;BME280_temperature;BME280_humidity;BME280_pressure;Samples;Min_cycle;Max_cycle;Signal;HPM_P1;HPM_P2
2021/08/10 00:01:11;;;;;;;1.63;0.80;;;23.50;51.10;;;;;;5136112;28;20047;-52
2021/08/10 00:03:36;;;;;;;0.70;0.70;;;23.50;51.10;;;;;;5136229;28;20107;-50
2021/08/10 00:06:02;;;;;;;0.70;0.70;;;23.50;51.10;;;;;;5136007;28;20051;-48
2021/08/10 00:08:27;;;;;;;0.60;0.60;;;23.50;51.10;;;;;;5135551;28;20214;-51
2021/08/10 00:10:53;;;;;;;0.70;0.70;;;23.50;51.10;;;;;;5117553;28;20054;-53
2021/08/10 00:13:22;;;;;;;0.60;0.60;;;23.50;51.20;;;;;;5135477;28;20054;-53
2021/08/10 00:15:48;;;;;;;0.70;0.70;;;23.50;51.20;;;;;;5135974;28;20548;-54
2021/08/10 00:18:14;;;;;;;0.77;0.77;;;23.40;51.20;;;;;;5135270;28;20047;-53
2021/08/10 00:20:40;;;;;;;0.82;0.82;;;23.40;51.70;;;;;;5135239;28;20050;-48
2021/08/10 00:23:06;;;;;;;0.60;0.60;;;23.40;51.20;;;;;;5135065;28;20055;-54
2021/08/10 00:25:32;;;;;;;0.70;0.70;;;23.40;51.30;;;;;;5135505;28;20047;-50
2021/08/10 00:27:59;;;;;;;0.75;0.75;;;23.40;51.30;;;;;;5135211;28;20043;-55
2021/08/10 00:30:24;;;;;;;0.77;0.77;;;23.40;51.30;;;;;;5135391;28;20066;-54
2021/08/10 00:32:50;;;;;;;0.70;0.70;;;23.40;51.40;;;;;;5135591;27;20087;-50
2021/08/10 00:35:16;;;;;;;0.88;0.80;;;23.40;51.40;;;;;;5116657;28;20108;-53
2021/08/10 00:37:42;;;;;;;0.95;0.70;;;23.40;51.40;;;;;;5135319;28;20498;-53
2021/08/10 00:40:09;;;;;;;0.98;0.70;;;23.40;51.40;;;;;;5114900;28;20047;-50
2021/08/10 00:42:35;;;;;;;0.60;0.60;;;23.30;51.40;;;;;;5116704;28;20133;-53
2021/08/10 00:45:02;;;;;;;0.60;0.60;;;23.30;51.40;;;;;;5115808;28;20062;-52
2021/08/10 00:47:34;;;;;;;0.80;0.70;;;23.30;51.40;;;;;;5116256;28;20509;-54
2021/08/10 00:50:00;;;;;;;0.70;0.70;;;23.30;51.40;;;;;;5116892;28;20051;-55
2021/08/10 00:52:26;;;;;;;0.90;0.80;;;23.30;51.50;;;;;;5116361;28;20131;-52
2021/08/10 00:54:52;;;;;;;0.70;0.70;;;23.30;51.50;;;;;;5116274;28;20043;-52
2021/08/10 00:57:18;;;;;;;0.70;0.70;;;23.30;51.50;;;;;;5116140;28;20069;-55
2021/08/10 00:59:47;;;;;;;0.70;0.70;;;23.30;51.50;;;;;;5116262;28;20055;-54
2021/08/10 01:02:13;;;;;;;0.90;0.80;;;23.30;51.50;;;;;;5116041;28;20092;-53
2021/08/10 01:04:40;;;;;;;0.60;0.60;;;23.30;51.50;;;;;;5116285;28;20062;-51
2021/08/10 01:07:36;;;;;;;0.73;0.73;;;23.30;51.60;;;;;;5115200;28;20054;-50
2021/08/10 01:10:14;;;;;;;0.75;0.75;;;23.30;51.60;;;;;;5116110;28;20082;-49
2021/08/10 01:13:14;;;;;;;0.73;0.73;;;23.20;51.50;;;;;;5134500;28;20122;-57
2021/08/10 01:15:50;;;;;;;0.60;0.60;;;23.30;51.60;;;;;;5116567;28;20692;-53
2021/08/10 01:18:28;;;;;;;0.95;0.80;;;23.20;51.60;;;;;;5115668;28;20050;-51
2021/08/10 01:21:13;;;;;;;0.60;0.60;;;23.20;51.60;;;;;;5115862;28;20100;-54
2021/08/10 01:23:49;;;;;;;0.90;0.90;;;23.20;51.60;;;;;;5115914;28;20047;-56
2021/08/10 01:26:34;;;;;;;0.70;0.63;;;23.20;51.60;;;;;;5134863;28;20075;-53
2021/08/10 01:29:22;;;;;;;0.60;0.60;;;23.20;51.60;;;;;;5115154;28;20502;-54
2021/08/10 01:31:50;;;;;;;0.90;0.73;;;23.20;51.70;;;;;;5098928;28;20066;-52
2021/08/10 01:34:26;;;;;;;0.70;0.70;;;23.20;51.70;;;;;;5115290;28;20082;-50
2021/08/10 01:37:03;;;;;;;0.85;0.80;;;23.20;51.70;;;;;;5114600;28;20183;-56
2021/08/10 01:39:30;;;;;;;;;;;23.20;51.70;;;;;;5115047;28;20083;-54
2021/08/10 01:42:00;;;;;;;0.68;0.68;;;23.20;51.70;;;;;;5113786;28;20271;-54
2021/08/10 01:44:27;;;;;;;0.70;0.70;;;23.20;51.70;;;;;;5115382;28;20051;-50
2021/08/10 01:46:59;;;;;;;0.60;0.60;;;23.20;51.80;;;;;;5114928;28;20107;-57
2021/08/10 01:49:27;;;;;;;0.60;0.60;;;23.20;51.80;;;;;;5114830;28;20059;-53
2021/08/10 01:51:57;;;;;;;2.10;0.80;;;23.20;51.80;;;;;;5113995;28;20402;-52
2021/08/10 01:54:24;;;;;;;1.05;0.90;;;23.20;51.80;;;;;;5114096;28;20047;-48
2021/08/10 01:56:50;;;;;;;0.68;0.68;;;23.20;51.90;;;;;;5115261;28;20513;-51
2021/08/10 01:59:18;;;;;;;0.80;0.80;;;23.10;51.80;;;;;;5115270;28;20059;-54
2021/08/10 02:01:46;;;;;;;0.63;0.63;;;23.10;51.80;;;;;;5115217;28;20142;-52
2021/08/10 02:04:18;;;;;;;0.93;0.70;;;23.10;51.80;;;;;;5114465;28;20528;-49
2021/08/10 02:06:49;;;;;;;0.73;0.73;;;23.10;51.90;;;;;;5115034;28;20135;-51
2021/08/10 02:09:19;;;;;;;0.90;0.80;;;23.10;51.90;;;;;;5115776;28;20292;-48
2021/08/10 02:11:46;;;;;;;;;;;23.10;51.90;;;;;;5115969;28;20398;-53
2021/08/10 02:14:14;;;;;;;0.70;0.70;;;23.10;51.90;;;;;;5133566;28;19922;-48
2021/08/10 02:16:40;;;;;;;0.80;0.80;;;23.10;51.90;;;;;;5114943;28;20086;-52
2021/08/10 02:19:09;;;;;;;0.63;0.63;;;23.10;51.90;;;;;;5115164;28;20051;-50
2021/08/10 02:21:44;;;;;;;0.80;0.68;;;23.10;51.90;;;;;;5112972;28;20403;-49
2021/08/10 02:24:30;;;;;;;0.90;0.80;;;23.00;51.90;;;;;;5115371;28;20079;-51
2021/08/10 02:27:03;;;;;;;0.98;0.90;;;23.10;52.00;;;;;;5113329;28;20050;-50
2021/08/10 02:29:40;;;;;;;0.98;0.98;;;23.10;52.00;;;;;;5113100;28;20491;-54
2021/08/10 02:32:10;;;;;;;0.90;0.73;;;23.10;52.00;;;;;;5113665;28;20134;-51
2021/08/10 02:34:41;;;;;;;0.77;0.65;;;23.00;52.00;;;;;;5113952;28;20064;-48
2021/08/10 02:37:12;;;;;;;0.70;0.70;;;23.10;52.00;;;;;;5113729;28;20494;-51
2021/08/10 02:39:39;;;;;;;0.70;0.70;;;23.00;52.00;;;;;;5113539;28;20051;-50
2021/08/10 02:42:07;;;;;;;0.82;0.82;;;23.00;52.10;;;;;;5114828;28;20047;-52
2021/08/10 02:44:36;;;;;;;0.82;0.82;;;23.00;52.10;;;;;;5113706;28;20146;-47
2021/08/10 02:47:04;;;;;;;0.80;0.77;;;23.00;52.10;;;;;;5113921;28;20047;-50
2021/08/10 02:49:29;;;;;;;0.90;0.90;;;23.00;52.10;;;;;;5112440;28;20052;-50
2021/08/10 02:51:55;;;;;;;0.90;0.90;;;23.00;52.60;;;;;;5113670;28;20051;-54
2021/08/10 02:54:21;;;;;;;0.80;0.70;;;23.00;52.10;;;;;;5112938;28;20055;-53
2021/08/10 02:56:54;;;;;;;0.70;0.70;;;23.00;52.10;;;;;;5115903;28;20047;-49
2021/08/10 02:59:29;;;;;;;0.68;0.68;;;23.00;52.20;;;;;;5116115;28;20059;-51
2021/08/10 03:02:23;;;;;;;0.80;0.80;;;23.00;52.20;;;;;;5116265;28;20571;-51
2021/08/10 03:04:58;;;;;;;0.63;0.63;;;23.00;52.20;;;;;;5117879;28;20486;-52
2021/08/10 03:07:27;;;;;;;0.70;0.70;;;23.00;52.20;;;;;;5118077;28;20051;-54
2021/08/10 03:09:58;;;;;;;0.80;0.80;;;23.00;52.20;;;;;;5118265;28;20467;-53
2021/08/10 03:12:28;;;;;;;0.70;0.70;;;22.90;52.20;;;;;;5118331;28;20046;-52
2021/08/10 03:14:57;;;;;;;0.70;0.70;;;22.90;52.70;;;;;;5136238;28;20055;-52
2021/08/10 03:17:29;;;;;;;1.00;0.90;;;22.90;52.20;;;;;;5100772;28;20051;-49
2021/08/10 03:19:58;;;;;;;0.70;0.70;;;22.90;52.30;;;;;;5136282;28;20510;-49
2021/08/10 03:22:27;;;;;;;0.60;0.60;;;22.90;52.30;;;;;;5136159;28;20123;-51
2021/08/10 03:24:55;;;;;;;1.00;0.90;;;22.90;52.30;;;;;;5117691;28;20107;-51
2021/08/10 03:27:23;;;;;;;0.73;0.73;;;22.90;52.30;;;;;;5118311;28;20063;-54
2021/08/10 03:29:49;;;;;;;0.80;0.70;;;22.90;52.30;;;;;;5136307;28;20445;-49
2021/08/10 03:32:15;;;;;;;0.70;0.70;;;22.90;52.30;;;;;;5117767;28;20054;-52
2021/08/10 03:34:43;;;;;;;1.33;1.10;;;22.90;52.30;;;;;;5117698;28;20435;-55
2021/08/10 03:37:09;;;;;;;0.60;0.60;;;22.90;52.30;;;;;;5100189;28;20081;-55
2021/08/10 03:39:39;;;;;;;0.70;0.70;;;22.90;52.30;;;;;;5116286;28;20074;-54
2021/08/10 03:42:05;;;;;;;0.80;0.60;;;22.90;52.40;;;;;;5116107;28;20046;-51
2021/08/10 03:44:31;;;;;;;0.70;0.70;;;22.90;52.30;;;;;;5135913;28;20501;-53
2021/08/10 03:46:57;;;;;;;0.70;0.70;;;22.90;52.30;;;;;;5116753;28;20496;-54
2021/08/10 03:49:25;;;;;;;0.80;0.80;;;22.90;52.40;;;;;;5115534;28;20051;-55
2021/08/10 03:51:52;;;;;;;0.85;0.85;;;22.90;52.40;;;;;;5117904;28;20047;-48
2021/08/10 03:54:17;;;;;;;0.77;0.77;;;22.90;52.40;;;;;;5116662;28;20115;-49
2021/08/10 03:56:46;;;;;;;0.80;0.80;;;22.90;52.40;;;;;;5117094;28;20047;-49
2021/08/10 03:59:13;;;;;;;0.70;0.70;;;22.90;52.40;;;;;;5117279;28;20394;-51
2021/08/10 04:01:43;;;;;;;0.65;0.60;;;22.90;52.40;;;;;;5117757;28;20047;-48
2021/08/10 04:04:09;;;;;;;0.60;0.60;;;22.90;52.40;;;;;;5135980;28;20047;-47
2021/08/10 04:06:37;;;;;;;0.90;0.80;;;22.80;52.40;;;;;;5117015;28;20142;-52
2021/08/10 04:09:06;;;;;;;0.80;0.80;;;22.90;52.50;;;;;;5116683;28;20059;-53
2021/08/10 04:11:33;;;;;;;0.93;0.73;;;22.80;52.40;;;;;;5116889;28;20043;-49
2021/08/10 04:14:02;;;;;;;0.90;0.90;;;22.80;52.40;;;;;;5116856;28;20093;-49
2021/08/10 04:16:39;;;;;;;0.90;0.90;;;22.80;52.40;;;;;;5117312;28;20129;-54
2021/08/10 04:19:06;;;;;;;0.90;0.70;;;22.80;52.50;;;;;;5116877;28;20059;-51
2021/08/10 04:21:32;;;;;;;0.95;0.90;;;22.80;52.50;;;;;;5115724;28;20054;-51
2021/08/10 04:24:04;;;;;;;0.88;0.88;;;22.80;52.50;;;;;;5116926;28;20142;-48
2021/08/10 04:26:29;;;;;;;0.70;0.70;;;22.80;52.50;;;;;;5116840;28;20072;-52
2021/08/10 04:28:55;;;;;;;1.10;1.00;;;22.80;52.50;;;;;;5116701;28;20398;-54
2021/08/10 04:31:21;;;;;;;0.80;0.80;;;22.80;52.50;;;;;;5116633;28;20063;-50
2021/08/10 04:33:48;;;;;;;0.70;0.70;;;22.80;52.50;;;;;;5115550;28;20040;-47
2021/08/10 04:36:17;;;;;;;0.70;0.70;;;22.80;52.50;;;;;;5116483;28;20058;-47
2021/08/10 04:38:42;;;;;;;0.88;0.88;;;22.80;52.50;;;;;;5135057;28;20051;-47
2021/08/10 04:41:08;;;;;;;1.05;0.88;;;22.80;52.50;;;;;;5116438;28;20047;-49
2021/08/10 04:43:54;;;;;;;0.80;0.75;;;22.80;52.50;;;;;;5116890;28;20483;-47
2021/08/10 04:46:25;;;;;;;0.70;0.70;;;22.80;52.50;;;;;;5134951;28;20059;-48
2021/08/10 04:48:51;;;;;;;0.77;0.77;;;22.80;52.50;;;;;;5116866;28;20077;-46
2021/08/10 04:51:16;;;;;;;1.00;0.85;;;22.80;52.50;;;;;;5114632;28;20052;-47
2021/08/10 04:53:42;;;;;;;6.50;1.23;;;22.80;52.50;;;;;;5116257;28;20054;-46
2021/08/10 04:56:09;;;;;;;0.60;0.60;;;22.80;53.30;;;;;;5116216;28;20099;-44
2021/08/10 04:58:35;;;;;;;1.30;0.98;;;22.90;52.70;;;;;;5116143;28;20509;-47
2021/08/10 05:01:01;;;;;;;1.33;0.90;;;22.80;52.80;;;;;;5116370;28;20055;-47
2021/08/10 05:03:31;;;;;;;1.48;0.90;;;22.90;52.80;;;;;;5116487;28;20039;-46
2021/08/10 05:05:58;;;;;;;1.35;0.93;;;22.80;52.70;;;;;;5116079;28;20403;-45
2021/08/10 05:08:23;;;;;;;2.28;0.90;;;22.80;52.70;;;;;;5116047;28;20047;-44
2021/08/10 05:10:49;;;;;;;1.10;1.00;;;22.80;52.90;;;;;;5114648;28;20063;-49
2021/08/10 05:13:19;;;;;;;2.38;0.93;;;22.90;52.70;;;;;;5116011;28;20054;-46
2021/08/10 05:15:45;;;;;;;1.60;0.82;;;22.80;52.60;;;;;;5115965;28;20062;-49
2021/08/10 05:18:11;;;;;;;2.30;1.02;;;22.90;52.70;;;;;;5116141;28;20062;-45
2021/08/10 05:20:40;;;;;;;1.00;0.90;;;22.90;52.70;;;;;;5114199;28;20051;-45
2021/08/10 05:23:06;;;;;;;1.38;0.90;;;22.80;52.60;;;;;;5115807;28;20050;-45
2021/08/10 05:25:33;;;;;;;1.00;0.90;;;22.90;52.70;;;;;;5116348;28;20054;-44
2021/08/10 05:28:01;;;;;;;1.60;0.98;;;22.80;53.10;;;;;;5115702;28;20039;-46
2021/08/10 05:30:27;;;;;;;1.45;1.02;;;22.80;52.60;;;;;;5115701;28;20455;-44
2021/08/10 05:32:52;;;;;;;1.05;0.95;;;22.80;52.60;;;;;;5115859;28;20100;-45
2021/08/10 05:35:18;;;;;;;1.17;1.08;;;22.80;52.60;;;;;;5116231;28;20070;-45
2021/08/10 05:37:44;;;;;;;1.08;0.90;;;22.80;52.60;;;;;;5134370;28;20116;-44
2021/08/10 05:40:10;;;;;;;1.48;0.90;;;22.80;52.60;;;;;;5134603;28;20089;-47
2021/08/10 05:42:36;;;;;;;1.50;0.90;;;22.80;52.60;;;;;;5113899;28;20491;-48
2021/08/10 05:45:04;;;;;;;1.15;1.00;;;22.80;52.60;;;;;;5116136;28;20054;-45
2021/08/10 05:47:30;;;;;;;0.90;0.88;;;22.90;52.60;;;;;;5098271;28;20051;-51
2021/08/10 05:49:56;;;;;;;2.63;0.90;;;22.80;52.60;;;;;;5114481;28;20050;-47
2021/08/10 05:52:23;;;;;;;0.95;0.88;;;22.90;52.60;;;;;;5115504;28;20395;-45
2021/08/10 05:54:50;;;;;;;1.17;1.02;;;22.80;52.60;;;;;;5115330;28;20148;-46
2021/08/10 05:57:17;;;;;;;1.42;0.85;;;22.80;52.50;;;;;;5115280;28;20094;-47
2021/08/10 05:59:44;;;;;;;1.75;0.93;;;22.80;52.50;;;;;;5133504;28;20135;-46
2021/08/10 06:02:10;;;;;;;1.42;1.02;;;22.90;52.60;;;;;;5133557;28;20065;-46
2021/08/10 06:04:35;;;;;;;1.45;1.10;;;22.90;52.60;;;;;;5133808;28;20055;-47
2021/08/10 06:07:04;;;;;;;3.33;1.10;;;22.80;52.50;;;;;;5114409;28;20108;-49
2021/08/10 06:09:35;;;;;;;0.82;0.82;;;22.80;52.50;;;;;;5114477;28;20051;-51
2021/08/10 06:12:01;;;;;;;1.00;0.90;;;22.80;53.00;;;;;;5114112;28;20058;-45
2021/08/10 06:14:28;;;;;;;1.23;1.05;;;22.90;52.60;;;;;;5113040;28;20138;-46
2021/08/10 06:16:56;;;;;;;1.10;1.00;;;22.80;52.50;;;;;;5112948;28;20055;-46
2021/08/10 06:19:22;;;;;;;1.70;0.90;;;22.90;52.60;;;;;;5114151;28;20399;-49
2021/08/10 06:21:49;;;;;;;1.23;1.13;;;22.80;52.50;;;;;;5113341;28;20051;-46
2021/08/10 06:24:14;;;;;;;1.30;1.10;;;22.80;52.50;;;;;;5113394;28;20050;-44
2021/08/10 06:26:43;;;;;;;1.17;1.02;;;22.80;52.50;;;;;;5133207;28;20192;-50
2021/08/10 06:29:09;;;;;;;0.90;0.90;;;22.90;52.50;;;;;;5113538;28;20052;-51
2021/08/10 06:31:34;;;;;;;1.25;1.13;;;22.90;53.00;;;;;;5117615;28;20387;-47
2021/08/10 06:34:00;;;;;;;1.65;1.00;;;22.90;52.50;;;;;;5118462;28;20102;-47
2021/08/10 06:36:27;;;;;;;0.90;0.80;;;22.90;52.50;;;;;;5118504;28;20051;-45
2021/08/10 06:38:52;;;;;;;1.05;0.98;;;22.90;52.50;;;;;;5117597;28;20048;-45
2021/08/10 06:41:20;;;;;;;1.10;0.98;;;22.90;52.50;;;;;;5118521;28;20051;-47
2021/08/10 06:43:59;;;;;;;0.90;0.90;;;22.90;52.40;;;;;;5136896;28;20937;-47
2021/08/10 06:46:26;;;;;;;1.48;0.98;;;22.90;52.40;;;;;;5118301;28;20126;-50
2021/08/10 06:48:56;;;;;;;1.08;0.98;;;22.90;52.40;;;;;;5118569;28;20082;-49
2021/08/10 06:51:27;;;;;;;1.33;1.00;;;22.90;52.40;;;;;;5118170;28;20410;-47
2021/08/10 06:53:53;;;;;;;1.33;1.15;;;22.90;52.40;;;;;;5136648;28;20055;-49
2021/08/10 06:56:18;;;;;;;1.38;1.20;;;22.90;52.90;;;;;;5118328;28;20150;-44
2021/08/10 06:58:44;;;;;;;1.10;1.00;;;22.90;52.30;;;;;;5136363;28;20061;-44
2021/08/10 07:01:09;;;;;;;1.33;1.20;;;22.90;52.30;;;;;;5136710;28;20096;-49
2021/08/10 07:03:38;;;;;;;1.23;0.95;;;22.90;52.30;;;;;;5118614;28;20096;-46
2021/08/10 07:06:04;;;;;;;0.82;0.80;;;22.90;52.30;;;;;;5117780;28;20047;-46
2021/08/10 07:08:36;;;;;;;0.95;0.85;;;22.90;52.20;;;;;;5116132;28;20060;-49
2021/08/10 07:11:03;;;;;;;0.88;0.85;;;22.90;52.20;;;;;;5117939;28;20202;-47
2021/08/10 07:13:30;;;;;;;1.05;0.95;;;22.90;52.20;;;;;;5117865;28;20402;-46
2021/08/10 07:15:59;;;;;;;2.28;1.00;;;23.00;52.20;;;;;;5118183;28;20434;-46
2021/08/10 07:18:25;;;;;;;0.98;0.90;;;23.00;52.20;;;;;;5116019;28;20059;-46
2021/08/10 07:20:52;;;;;;;0.90;0.90;;;23.00;52.20;;;;;;5115689;28;20047;-49
2021/08/10 07:23:19;;;;;;;1.10;1.00;;;23.00;52.10;;;;;;5117662;28;20426;-45
2021/08/10 07:25:49;;;;;;;1.10;0.80;;;23.00;52.10;;;;;;5117710;28;20055;-48
2021/08/10 07:28:21;;;;;;;1.42;1.00;;;23.00;52.10;;;;;;5117710;28;20051;-46
2021/08/10 07:30:49;;;;;;;1.10;1.00;;;23.00;52.10;;;;;;5117172;28;20142;-49
2021/08/10 07:33:16;;;;;;;1.30;1.08;;;23.00;52.10;;;;;;5117761;28;20138;-45
2021/08/10 07:35:43;;;;;;;2.00;1.35;;;23.00;52.10;;;;;;5117592;28;20047;-45
2021/08/10 07:38:09;;;;;;;1.23;1.05;;;23.00;52.10;;;;;;5117515;28;20047;-47
2021/08/10 07:40:35;;;;;;;0.85;0.80;;;23.00;52.10;;;;;;5117434;28;20468;-46
2021/08/10 07:43:03;;;;;;;0.98;0.88;;;23.00;52.10;;;;;;5116409;28;20053;-43
2021/08/10 07:45:31;;;;;;;1.02;0.93;;;23.00;52.10;;;;;;5117256;28;20047;-47
2021/08/10 07:48:01;;;;;;;1.00;0.95;;;23.00;52.00;;;;;;5115380;28;20063;-46
2021/08/10 07:50:30;;;;;;;1.77;1.20;;;23.10;52.00;;;;;;5115762;28;20048;-45
2021/08/10 07:52:55;;;;;;;1.58;1.00;;;23.10;51.90;;;;;;5135962;28;20048;-47
2021/08/10 07:55:21;;;;;;;1.27;0.98;;;23.10;52.30;;;;;;5117593;28;20395;-45
2021/08/10 07:57:47;;;;;;;1.05;0.90;;;23.10;51.80;;;;;;5115403;28;20067;-48
2021/08/10 08:00:14;;;;;;;1.30;1.20;;;23.10;51.80;;;;;;5117161;28;20405;-47
2021/08/10 08:02:39;;;;;;;1.02;0.93;;;23.20;51.70;;;;;;5135306;28;20051;-49
2021/08/10 08:05:06;;;;;;;1.45;1.08;;;23.20;51.70;;;;;;5116930;28;20059;-52
2021/08/10 08:07:33;;;;;;;0.98;0.85;;;23.10;51.60;;;;;;5117146;28;20055;-48
2021/08/10 08:09:59;;;;;;;0.90;0.90;;;23.20;51.70;;;;;;5114786;28;20056;-44
2021/08/10 08:12:24;;;;;;;1.10;1.00;;;23.20;51.70;;;;;;5116345;28;20077;-50
2021/08/10 08:14:50;;;;;;;1.27;1.10;;;23.20;51.60;;;;;;5116899;28;20133;-44
2021/08/10 08:17:17;;;;;;;0.80;0.80;;;23.20;51.60;;;;;;5117016;28;20051;-44
2021/08/10 08:19:43;;;;;;;0.90;0.85;;;23.20;51.60;;;;;;5117092;28;20047;-48
2021/08/10 08:22:12;;;;;;;0.82;0.82;;;23.20;51.60;;;;;;5115871;28;20138;-49
2021/08/10 08:24:38;;;;;;;1.50;0.90;;;23.20;51.60;;;;;;5116046;28;20062;-48
2021/08/10 08:27:04;;;;;;;0.82;0.82;;;23.20;51.60;;;;;;5114903;28;20407;-45
2021/08/10 08:29:30;;;;;;;0.85;0.82;;;23.20;51.60;;;;;;5116616;28;20055;-47
2021/08/10 08:31:56;;;;;;;0.80;0.80;;;23.20;51.50;;;;;;5115538;28;20475;-50
2021/08/10 08:34:21;;;;;;;0.90;0.90;;;23.30;51.60;;;;;;5115066;28;20090;-53
2021/08/10 08:36:48;;;;;;;1.30;1.13;;;23.30;51.50;;;;;;5116336;28;20471;-45
2021/08/10 08:39:14;;;;;;;1.00;0.90;;;23.30;51.40;;;;;;5116737;28;20043;-47
2021/08/10 08:41:41;;;;;;;0.90;0.90;;;23.30;51.40;;;;;;5134902;28;20483;-46
2021/08/10 08:44:08;;;;;;;0.70;0.70;;;23.30;51.30;;;;;;5097678;28;20052;-45
2021/08/10 08:46:37;;;;;;;0.90;0.77;;;23.30;51.30;;;;;;5116911;28;20526;-46
2021/08/10 08:49:05;;;;;;;0.90;0.90;;;23.40;51.30;;;;;;5116868;28;20083;-47
2021/08/10 08:51:32;;;;;;;1.23;1.00;;;23.40;51.20;;;;;;5116201;28;20047;-48
2021/08/10 08:54:01;;;;;;;0.90;0.90;;;23.40;51.20;;;;;;5115396;28;20142;-47
2021/08/10 08:56:31;;;;;;;1.10;1.00;;;23.50;51.20;;;;;;5116514;28;20103;-50
2021/08/10 08:59:02;;;;;;;1.13;1.02;;;23.40;51.10;;;;;;5115206;28;20368;-45
2021/08/10 09:01:29;;;;;;;1.10;1.00;;;23.50;51.00;;;;;;5116110;28;20117;-47
2021/08/10 09:03:55;;;;;;;0.90;0.90;;;23.50;51.00;;;;;;5114248;28;20479;-48
2021/08/10 09:06:22;;;;;;;1.00;0.90;;;23.50;51.00;;;;;;5116138;28;20051;-44
2021/08/10 09:08:53;;;;;;;0.82;0.80;;;23.50;50.90;;;;;;5116065;28;20402;-46
2021/08/10 09:11:22;;;;;;;1.00;0.88;;;23.50;50.80;;;;;;5115968;28;20050;-46
2021/08/10 09:14:01;;;;;;;1.23;1.13;;;23.60;50.90;;;;;;5134785;28;20131;-47
2021/08/10 09:16:32;;;;;;;0.93;0.77;;;23.60;50.80;;;;;;5116363;28;20046;-47
2021/08/10 09:18:58;;;;;;;0.90;0.90;;;23.60;50.80;;;;;;5116467;28;20051;-49
2021/08/10 09:21:26;;;;;;;1.40;1.00;;;23.70;50.70;;;;;;5116198;28;20053;-47
2021/08/10 09:23:59;;;;;;;0.93;0.90;;;23.60;50.60;;;;;;5116481;28;20059;-47
2021/08/10 09:26:31;;;;;;;0.80;0.80;;;23.70;50.50;;;;;;5114405;28;20146;-50
2021/08/10 09:28:59;;;;;;;1.00;0.90;;;23.70;50.40;;;;;;5115629;28;20082;-46
2021/08/10 09:31:38;;;;;;;1.15;1.02;;;23.80;50.40;;;;;;5115363;28;20055;-44
2021/08/10 09:34:22;;;;;;;1.17;1.00;;;23.80;50.30;;;;;;5115998;28;20135;-44
2021/08/10 09:36:50;;;;;;;1.25;0.93;;;23.80;50.30;;;;;;5131300;28;20138;-45
2021/08/10 09:39:26;;;;;;;0.82;0.82;;;23.80;50.20;;;;;;5113356;28;20056;-43
2021/08/10 09:42:12;;;;;;;1.17;1.05;;;23.80;50.20;;;;;;5114345;28;20039;-45
2021/08/10 09:44:56;;;;;;;1.02;0.93;;;23.80;50.20;;;;;;5115217;28;20051;-46
2021/08/10 09:47:36;;;;;;;1.05;0.98;;;23.80;50.20;;;;;;5115440;28;20375;-47
2021/08/10 09:50:26;;;;;;;1.05;0.95;;;23.80;50.10;;;;;;5115700;28;20490;-48
2021/08/10 09:52:52;;;;;;;0.85;0.85;;;23.90;50.20;;;;;;5115522;28;20137;-46
2021/08/10 09:55:19;;;;;;;1.10;1.00;;;23.90;50.10;;;;;;5115262;28;20514;-44
2021/08/10 09:58:02;;;;;;;0.90;0.90;;;23.90;50.00;;;;;;5114967;28;20059;-45
2021/08/10 10:00:39;;;;;;;1.23;1.00;;;23.90;50.00;;;;;;5114627;28;20047;-47
2021/08/10 10:03:20;;;;;;;1.30;1.10;;;24.00;50.00;;;;;;5115788;28;20099;-44
2021/08/10 10:05:49;;;;;;;1.25;1.10;;;24.00;50.00;;;;;;5114731;28;20486;-45
2021/08/10 10:08:25;;;;;;;0.80;0.80;;;24.00;49.90;;;;;;5114412;28;20108;-45
2021/08/10 10:10:55;;;;;;;0.98;0.93;;;24.00;49.90;;;;;;5115855;28;20103;-47
2021/08/10 10:13:23;;;;;;;1.00;0.90;;;24.00;49.80;;;;;;5115069;28;20052;-49
2021/08/10 10:15:49;;;;;;;1.27;1.10;;;24.00;49.70;;;;;;5133577;28;20059;-51
2021/08/10 10:18:17;;;;;;;0.77;0.70;;;24.00;49.70;;;;;;5113661;28;20054;-48
2021/08/10 10:20:48;;;;;;;1.15;0.90;;;24.00;49.80;;;;;;5133820;28;20047;-49
2021/08/10 10:23:19;;;;;;;1.20;0.90;;;24.00;49.80;;;;;;5133899;28;20051;-50
2021/08/10 10:25:46;;;;;;;1.20;1.10;;;24.00;49.80;;;;;;5133438;28;20082;-50
2021/08/10 10:28:15;;;;;;;1.20;0.80;;;24.10;49.70;;;;;;5133095;28;20047;-49
2021/08/10 10:30:44;;;;;;;1.20;1.10;;;24.10;49.70;;;;;;5133390;28;20059;-49
2021/08/10 10:33:11;;;;;;;1.00;0.90;;;24.10;49.60;;;;;;5115380;28;20092;-50
2021/08/10 10:35:39;;;;;;;1.08;0.85;;;24.10;49.60;;;;;;5133251;28;20126;-49
2021/08/10 10:38:05;;;;;;;1.15;1.00;;;24.10;49.60;;;;;;5133679;28;20051;-52
2021/08/10 10:40:31;;;;;;;1.10;1.00;;;24.10;49.50;;;;;;5133173;28;20134;-48
2021/08/10 10:42:57;;;;;;;1.00;0.88;;;24.20;49.60;;;;;;5132934;28;20063;-42
2021/08/10 10:45:33;;;;;;;1.25;1.15;;;24.20;49.50;;;;;;5132798;28;20139;-45
2021/08/10 10:47:58;;;;;;;0.85;0.85;;;24.20;49.40;;;;;;5133094;28;20054;-48
2021/08/10 10:50:25;;;;;;;1.23;1.00;;;24.20;49.30;;;;;;5133339;28;20391;-48
2021/08/10 10:53:03;;;;;;;0.63;0.63;;;24.20;49.30;;;;;;5132725;28;20051;-46
2021/08/10 10:55:32;;;;;;;1.30;0.90;;;24.20;49.30;;;;;;5132881;28;20486;-46
2021/08/10 10:57:57;;;;;;;1.10;1.00;;;24.30;49.30;;;;;;5132903;28;20062;-48
2021/08/10 11:00:23;;;;;;;1.33;1.10;;;24.30;49.30;;;;;;5133339;28;20051;-49
2021/08/10 11:03:11;;;;;;;1.10;1.00;;;24.30;49.20;;;;;;5132779;28;20051;-50
2021/08/10 11:05:38;;;;;;;0.80;0.80;;;24.30;49.20;;;;;;5133031;28;20050;-46
2021/08/10 11:08:05;;;;;;;0.80;0.80;;;24.30;49.20;;;;;;5132914;28;20185;-47
2021/08/10 11:10:47;;;;;;;1.67;0.90;;;24.40;49.20;;;;;;5132870;28;20047;-47
2021/08/10 11:13:17;;;;;;;1.25;1.10;;;24.40;49.10;;;;;;5133473;28;20047;-50
2021/08/10 11:15:45;;;;;;;1.67;0.90;;;24.40;49.10;;;;;;5132665;28;20095;-47
2021/08/10 11:18:12;;;;;;;1.50;1.40;;;24.40;49.00;;;;;;5134785;27;20508;-48
2021/08/10 11:20:49;;;;;;;1.23;1.10;;;24.40;49.00;;;;;;5136194;28;20141;-48
2021/08/10 11:23:22;;;;;;;0.77;0.77;;;24.40;49.00;;;;;;5136249;28;20108;-48
2021/08/10 11:25:50;;;;;;;1.02;0.90;;;24.40;48.90;;;;;;5136798;28;20432;-46
2021/08/10 11:28:30;;;;;;;0.68;0.68;;;24.40;48.90;;;;;;5135886;28;20055;-50
2021/08/10 11:31:01;;;;;;;0.80;0.80;;;24.40;48.80;;;;;;5136381;28;20086;-46
2021/08/10 11:33:31;;;;;;;1.35;1.10;;;24.50;48.90;;;;;;5118049;28;20123;-43
2021/08/10 11:36:12;;;;;;;0.85;0.85;;;24.50;48.90;;;;;;5136023;28;20050;-46
2021/08/10 11:38:43;;;;;;;1.45;1.00;;;24.40;48.80;;;;;;5136568;28;20043;-47
2021/08/10 11:41:10;;;;;;;0.80;0.80;;;24.40;48.80;;;;;;5136290;28;20104;-48
2021/08/10 11:43:45;;;;;;;1.00;0.90;;;24.40;48.90;;;;;;5135946;28;20057;-48
2021/08/10 11:46:37;;;;;;;0.98;0.82;;;24.40;49.00;;;;;;5136262;28;20150;-48
2021/08/10 11:49:05;;;;;;;1.10;1.00;;;24.40;49.00;;;;;;5132010;28;20392;-49
2021/08/10 11:51:35;;;;;;;1.20;1.10;;;24.40;49.60;;;;;;5136281;28;20085;-47
2021/08/10 11:54:20;;;;;;;1.13;0.85;;;24.40;49.00;;;;;;5135845;28;20054;-54
2021/08/10 11:56:48;;;;;;;0.80;0.80;;;24.40;49.00;;;;;;5136013;28;20069;-48
2021/08/10 11:59:25;;;;;;;1.27;1.00;;;24.40;49.00;;;;;;5135487;28;20115;-47
2021/08/10 12:01:52;;;;;;;0.93;0.88;;;24.50;49.10;;;;;;5135538;28;20050;-45
2021/08/10 12:04:20;;;;;;;1.33;1.05;;;24.50;48.90;;;;;;5135584;28;20055;-44
2021/08/10 12:06:50;;;;;;;1.02;0.90;;;24.50;48.90;;;;;;5135502;28;20054;-44
2021/08/10 12:09:21;;;;;;;1.23;1.02;;;24.50;48.90;;;;;;5135262;28;20062;-50
2021/08/10 12:11:57;;;;;;;1.10;0.90;;;24.50;48.90;;;;;;5135760;28;20047;-46
2021/08/10 12:14:32;;;;;;;0.90;0.82;;;24.50;48.90;;;;;;5135715;28;20134;-47
2021/08/10 12:17:08;;;;;;;1.13;0.98;;;24.50;48.90;;;;;;5135480;28;20054;-43
2021/08/10 12:19:40;;;;;;;0.70;0.70;;;24.50;48.80;;;;;;5116086;28;20395;-44
2021/08/10 12:22:21;;;;;;;1.02;0.93;;;24.50;48.80;;;;;;5135299;28;20053;-44
2021/08/10 12:24:49;;;;;;;1.20;1.10;;;24.50;48.70;;;;;;5135594;28;20143;-46
2021/08/10 12:27:16;;;;;;;1.02;0.90;;;24.50;48.80;;;;;;5135264;28;20453;-43
2021/08/10 12:29:52;;;;;;;0.95;0.88;;;24.50;48.90;;;;;;5134498;27;20051;-44
2021/08/10 12:32:26;;;;;;;0.90;0.80;;;24.50;48.90;;;;;;5135118;28;20043;-44
2021/08/10 12:34:51;;;;;;;0.75;0.75;;;24.40;48.80;;;;;;5135155;28;20043;-50
2021/08/10 12:37:28;;;;;;;0.90;0.73;;;24.40;48.90;;;;;;5135247;28;20095;-50
2021/08/10 12:39:54;;;;;;;0.70;0.70;;;24.40;48.90;;;;;;5116612;28;20055;-47
2021/08/10 12:42:21;;;;;;;0.90;0.80;;;24.40;48.90;;;;;;5134964;28;20505;-49
2021/08/10 12:44:52;;;;;;;0.88;0.88;;;24.40;49.00;;;;;;5135353;28;20096;-50
2021/08/10 12:47:32;;;;;;;1.15;1.00;;;24.50;49.00;;;;;;5134953;28;20047;-46
2021/08/10 12:49:58;;;;;;;1.10;0.93;;;24.50;48.90;;;;;;5135146;28;20055;-50
2021/08/10 12:52:43;;;;;;;0.80;0.80;;;24.50;48.90;;;;;;5134607;28;20055;-49
2021/08/10 12:55:09;;;;;;;0.93;0.90;;;24.50;48.80;;;;;;5134699;28;20122;-46
2021/08/10 12:57:35;;;;;;;0.80;0.80;;;24.50;48.80;;;;;;5134701;28;20043;-50
2021/08/10 13:00:18;;;;;;;1.98;0.95;;;24.50;48.80;;;;;;5135026;28;20045;-48